sensor_id;sensor_type;location;lat;lon;timestamp;pressure;altitude;pressure_sealevel;temperature;humidity
31483;BME280;18103;52.246;8.052;2024-03-06T00:02:11;100356.38;;;5.73;97.83
31483;BME280;18103;52.246;8.052;2024-03-06T00:04:38;100354.94;;;5.67;97.69
31483;BME280;18103;52.246;8.052;2024-03-06T00:07:06;100356.16;;;5.61;98.05
31483;BME280;18103;52.246;8.052;2024-03-06T00:09:44;100359.19;;;5.70;98.37
31483;BME280;18103;52.246;8.052;2024-03-06T00:12:10;100356.00;;;5.79;97.27
31483;BME280;18103;52.246;8.052;2024-03-06T00:14:40;100355.44;;;5.74;97.67
31483;BME280;18103;52.246;8.052;2024-03-06T00:17:05;100362.34;;;5.75;97.51
31483;BME280;18103;52.246;8.052;2024-03-06T00:19:32;100363.22;;;5.75;97.23
31483;BME280;18103;52.246;8.052;2024-03-06T00:21:58;100361.41;;;5.76;97.42
31483;BME280;18103;52.246;8.052;2024-03-06T00:24:25;100366.00;;;5.72;97.52
31483;BME280;18103;52.246;8.052;2024-03-06T00:26:50;100370.25;;;5.59;98.30
31483;BME280;18103;52.246;8.052;2024-03-06T00:29:18;100374.03;;;5.69;97.95
31483;BME280;18103;52.246;8.052;2024-03-06T00:31:45;100374.88;;;5.70;97.97
31483;BME280;18103;52.246;8.052;2024-03-06T00:34:13;100379.53;;;5.64;97.47
31483;BME280;18103;52.246;8.052;2024-03-06T00:36:47;100379.53;;;5.64;97.82
31483;BME280;18103;52.246;8.052;2024-03-06T00:39:15;100373.94;;;5.71;97.80
31483;BME280;18103;52.246;8.052;2024-03-06T00:41:42;100384.78;;;5.64;97.88
31483;BME280;18103;52.246;8.052;2024-03-06T00:44:07;100391.69;;;5.65;98.39
31483;BME280;18103;52.246;8.052;2024-03-06T00:46:36;100389.88;;;5.52;98.68
31483;BME280;18103;52.246;8.052;2024-03-06T00:49:02;100388.13;;;5.66;98.15
31483;BME280;18103;52.246;8.052;2024-03-06T00:51:30;100384.16;;;5.75;97.80
31483;BME280;18103;52.246;8.052;2024-03-06T00:53:59;100391.34;;;5.72;98.02
31483;BME280;18103;52.246;8.052;2024-03-06T00:56:26;100389.19;;;5.64;98.22
31483;BME280;18103;52.246;8.052;2024-03-06T00:58:52;100384.78;;;5.64;97.41
31483;BME280;18103;52.246;8.052;2024-03-06T01:01:19;100396.44;;;5.59;97.35
31483;BME280;18103;52.246;8.052;2024-03-06T01:03:48;100393.22;;;5.54;97.83
31483;BME280;18103;52.246;8.052;2024-03-06T01:06:14;100391.78;;;5.64;97.40
31483;BME280;18103;52.246;8.052;2024-03-06T01:08:43;100400.88;;;5.73;96.73
31483;BME280;18103;52.246;8.052;2024-03-06T01:11:11;100397.59;;;5.69;97.01
31483;BME280;18103;52.246;8.052;2024-03-06T01:13:42;100403.84;;;5.66;97.40
31483;BME280;18103;52.246;8.052;2024-03-06T01:16:08;100401.63;;;5.75;96.99
31483;BME280;18103;52.246;8.052;2024-03-06T01:18:33;100400.97;;;5.71;97.06
31483;BME280;18103;52.246;8.052;2024-03-06T01:20:59;100412.47;;;5.69;96.99
31483;BME280;18103;52.246;8.052;2024-03-06T01:23:24;100415.69;;;5.74;97.07
31483;BME280;18103;52.246;8.052;2024-03-06T01:25:50;100413.91;;;5.74;96.99
31483;BME280;18103;52.246;8.052;2024-03-06T01:28:19;100424.00;;;5.80;96.64
31483;BME280;18103;52.246;8.052;2024-03-06T01:30:46;100424.00;;;5.80;96.54
31483;BME280;18103;52.246;8.052;2024-03-06T01:33:11;100428.31;;;5.81;96.75
31483;BME280;18103;52.246;8.052;2024-03-06T01:35:41;100430.59;;;5.88;96.42
31483;BME280;18103;52.246;8.052;2024-03-06T01:38:09;100432.63;;;5.82;96.76
31483;BME280;18103;52.246;8.052;2024-03-06T01:40:37;100444.91;;;5.82;96.83
31483;BME280;18103;52.246;8.052;2024-03-06T01:43:04;100450.47;;;5.76;96.56
31483;BME280;18103;52.246;8.052;2024-03-06T01:45:31;100451.41;;;5.75;96.64
31483;BME280;18103;52.246;8.052;2024-03-06T01:48:02;100447.53;;;5.82;96.48
31483;BME280;18103;52.246;8.052;2024-03-06T01:50:30;100447.66;;;5.79;96.79
31483;BME280;18103;52.246;8.052;2024-03-06T01:52:58;100457.59;;;5.74;96.70
31483;BME280;18103;52.246;8.052;2024-03-06T01:55:29;100449.03;;;5.70;96.91
31483;BME280;18103;52.246;8.052;2024-03-06T01:57:57;100454.38;;;5.69;96.72
31483;BME280;18103;52.246;8.052;2024-03-06T02:00:23;100451.34;;;5.60;97.67
31483;BME280;18103;52.246;8.052;2024-03-06T02:02:51;100455.06;;;5.56;97.86
31483;BME280;18103;52.246;8.052;2024-03-06T02:05:16;100457.91;;;5.68;97.54
31483;BME280;18103;52.246;8.052;2024-03-06T02:07:47;100453.53;;;5.68;97.28
31483;BME280;18103;52.246;8.052;2024-03-06T02:10:15;100451.47;;;5.73;97.13
31483;BME280;18103;52.246;8.052;2024-03-06T02:12:43;100446.25;;;5.73;96.85
31483;BME280;18103;52.246;8.052;2024-03-06T02:15:12;100446.34;;;5.72;96.76
31483;BME280;18103;52.246;8.052;2024-03-06T02:17:42;100456.06;;;5.70;96.88
31483;BME280;18103;52.246;8.052;2024-03-06T02:20:10;100460.94;;;5.76;96.70
31483;BME280;18103;52.246;8.052;2024-03-06T02:22:41;100464.72;;;5.86;96.22
31483;BME280;18103;52.246;8.052;2024-03-06T02:25:12;100463.97;;;5.84;96.56
31483;BME280;18103;52.246;8.052;2024-03-06T02:27:40;100453.53;;;5.68;96.35
31483;BME280;18103;52.246;8.052;2024-03-06T02:30:09;100456.31;;;5.65;97.03
31483;BME280;18103;52.246;8.052;2024-03-06T02:32:39;100456.41;;;5.79;96.76
31483;BME280;18103;52.246;8.052;2024-03-06T02:35:08;100464.06;;;5.82;96.30
31483;BME280;18103;52.246;8.052;2024-03-06T02:37:36;100460.13;;;5.75;96.30
31483;BME280;18103;52.246;8.052;2024-03-06T02:40:01;100462.47;;;5.80;96.49
31483;BME280;18103;52.246;8.052;2024-03-06T02:42:34;100470.22;;;5.81;95.83
31483;BME280;18103;52.246;8.052;2024-03-06T02:44:59;100468.91;;;5.74;96.20
31483;BME280;18103;52.246;8.052;2024-03-06T02:47:29;100467.19;;;5.73;96.59
31483;BME280;18103;52.246;8.052;2024-03-06T02:49:54;100465.69;;;5.69;96.55
31483;BME280;18103;52.246;8.052;2024-03-06T02:52:21;100468.06;;;5.74;96.42
31483;BME280;18103;52.246;8.052;2024-03-06T02:54:47;100476.66;;;5.76;96.09
31483;BME280;18103;52.246;8.052;2024-03-06T02:57:13;100463.84;;;5.71;95.78
31483;BME280;18103;52.246;8.052;2024-03-06T02:59:43;100469.56;;;5.62;96.54
31483;BME280;18103;52.246;8.052;2024-03-06T03:02:09;100464.44;;;5.60;96.38
31483;BME280;18103;52.246;8.052;2024-03-06T03:04:35;100462.81;;;5.58;96.76
31483;BME280;18103;52.246;8.052;2024-03-06T03:07:01;100462.66;;;5.61;96.12
31483;BME280;18103;52.246;8.052;2024-03-06T03:09:28;100464.69;;;5.56;96.57
31483;BME280;18103;52.246;8.052;2024-03-06T03:11:57;100458.50;;;5.57;96.18
31483;BME280;18103;52.246;8.052;2024-03-06T03:14:25;100471.09;;;5.66;95.95
31483;BME280;18103;52.246;8.052;2024-03-06T03:16:50;100462.31;;;5.67;95.19
31483;BME280;18103;52.246;8.052;2024-03-06T03:19:16;100475.16;;;5.56;95.31
31483;BME280;18103;52.246;8.052;2024-03-06T03:21:44;100475.50;;;5.49;96.15
31483;BME280;18103;52.246;8.052;2024-03-06T03:24:10;100482.88;;;5.43;96.16
31483;BME280;18103;52.246;8.052;2024-03-06T03:26:35;100479.44;;;5.57;95.59
31483;BME280;18103;52.246;8.052;2024-03-06T03:29:02;100481.59;;;5.50;95.84
31483;BME280;18103;52.246;8.052;2024-03-06T03:31:28;100488.34;;;5.54;95.47
31483;BME280;18103;52.246;8.052;2024-03-06T03:33:56;100485.03;;;5.51;95.20
31483;BME280;18103;52.246;8.052;2024-03-06T03:36:23;100494.59;;;5.52;94.88
31483;BME280;18103;52.246;8.052;2024-03-06T03:38:50;100494.59;;;5.52;94.71
31483;BME280;18103;52.246;8.052;2024-03-06T03:41:15;100495.94;;;5.43;94.72
31483;BME280;18103;52.246;8.052;2024-03-06T03:43:42;100494.34;;;5.40;94.92
31483;BME280;18103;52.246;8.052;2024-03-06T03:46:08;100498.91;;;5.53;94.48
31483;BME280;18103;52.246;8.052;2024-03-06T03:48:34;100495.94;;;5.43;95.07
31483;BME280;18103;52.246;8.052;2024-03-06T03:51:02;100508.69;;;5.49;94.49
31483;BME280;18103;52.246;8.052;2024-03-06T03:53:29;100514.84;;;5.48;94.58
31483;BME280;18103;52.246;8.052;2024-03-06T03:55:55;100506.56;;;5.40;94.58
31483;BME280;18103;52.246;8.052;2024-03-06T03:58:20;100506.66;;;5.38;94.57
31483;BME280;18103;52.246;8.052;2024-03-06T04:00:46;100501.94;;;5.45;93.99
31483;BME280;18103;52.246;8.052;2024-03-06T04:03:11;100505.28;;;5.47;93.92
31483;BME280;18103;52.246;8.052;2024-03-06T04:05:40;100501.09;;;5.60;93.95
31483;BME280;18103;52.246;8.052;2024-03-06T04:08:06;100500.50;;;5.55;93.92
31483;BME280;18103;52.246;8.052;2024-03-06T04:10:33;100499.31;;;5.45;94.09
31483;BME280;18103;52.246;8.052;2024-03-06T04:12:58;100503.28;;;5.52;93.57
31483;BME280;18103;52.246;8.052;2024-03-06T04:15:25;100507.69;;;5.52;93.45
31483;BME280;18103;52.246;8.052;2024-03-06T04:17:53;100513.44;;;5.58;93.43
31483;BME280;18103;52.246;8.052;2024-03-06T04:20:21;100520.69;;;5.53;93.52
31483;BME280;18103;52.246;8.052;2024-03-06T04:22:47;100526.75;;;5.38;94.08
31483;BME280;18103;52.246;8.052;2024-03-06T04:25:13;100521.19;;;5.44;93.88
31483;BME280;18103;52.246;8.052;2024-03-06T04:27:43;100526.84;;;5.52;93.59
31483;BME280;18103;52.246;8.052;2024-03-06T04:30:08;100526.09;;;5.50;93.97
31483;BME280;18103;52.246;8.052;2024-03-06T04:32:36;100532.94;;;5.53;93.73
31483;BME280;18103;52.246;8.052;2024-03-06T04:35:02;100528.03;;;5.46;93.80
31483;BME280;18103;52.246;8.052;2024-03-06T04:37:29;100535.09;;;5.28;94.05
31483;BME280;18103;52.246;8.052;2024-03-06T04:39:58;100535.94;;;5.29;94.38
31483;BME280;18103;52.246;8.052;2024-03-06T04:42:23;100537.06;;;5.41;93.61
31483;BME280;18103;52.246;8.052;2024-03-06T04:44:51;100527.50;;;5.40;93.14
31483;BME280;18103;52.246;8.052;2024-03-06T04:47:16;100541.84;;;5.32;93.11
31483;BME280;18103;52.246;8.052;2024-03-06T04:49:43;100544.38;;;5.34;93.11
31483;BME280;18103;52.246;8.052;2024-03-06T04:52:08;100545.91;;;5.38;92.86
31483;BME280;18103;52.246;8.052;2024-03-06T04:54:35;100553.19;;;5.33;92.88
31483;BME280;18103;52.246;8.052;2024-03-06T04:57:02;100555.84;;;5.31;92.64
31483;BME280;18103;52.246;8.052;2024-03-06T04:59:30;100561.44;;;5.25;92.73
31483;BME280;18103;52.246;8.052;2024-03-06T05:01:56;100559.59;;;5.27;92.42
31483;BME280;18103;52.246;8.052;2024-03-06T05:04:21;100557.97;;;5.25;92.11
31483;BME280;18103;52.246;8.052;2024-03-06T05:06:48;100563.78;;;5.30;92.51
31483;BME280;18103;52.246;8.052;2024-03-06T05:09:14;100562.78;;;5.32;92.42
31483;BME280;18103;52.246;8.052;2024-03-06T05:11:42;100559.16;;;5.19;92.64
31483;BME280;18103;52.246;8.052;2024-03-06T05:14:09;100563.97;;;5.27;92.19
31483;BME280;18103;52.246;8.052;2024-03-06T05:16:40;100565.03;;;5.23;92.29
31483;BME280;18103;52.246;8.052;2024-03-06T05:19:05;100562.16;;;5.11;92.62
31483;BME280;18103;52.246;8.052;2024-03-06T05:21:34;100569.53;;;5.21;92.49
31483;BME280;18103;52.246;8.052;2024-03-06T05:24:02;100563.13;;;5.26;92.14
31483;BME280;18103;52.246;8.052;2024-03-06T05:26:30;100564.97;;;5.24;92.28
31483;BME280;18103;52.246;8.052;2024-03-06T05:28:55;100569.28;;;5.25;92.54
31483;BME280;18103;52.246;8.052;2024-03-06T05:31:20;100569.28;;;5.25;92.63
31483;BME280;18103;52.246;8.052;2024-03-06T05:33:47;100569.38;;;5.06;92.91
31483;BME280;18103;52.246;8.052;2024-03-06T05:36:13;100572.31;;;5.18;92.78
31483;BME280;18103;52.246;8.052;2024-03-06T05:38:44;100577.47;;;5.19;92.79
31483;BME280;18103;52.246;8.052;2024-03-06T05:41:10;100583.38;;;5.23;92.71
31483;BME280;18103;52.246;8.052;2024-03-06T05:43:36;100584.81;;;5.28;92.75
31483;BME280;18103;52.246;8.052;2024-03-06T05:46:02;100593.84;;;5.23;92.50
31483;BME280;18103;52.246;8.052;2024-03-06T05:48:27;100593.00;;;5.22;92.81
31483;BME280;18103;52.246;8.052;2024-03-06T05:50:53;100595.63;;;5.22;92.67
31483;BME280;18103;52.246;8.052;2024-03-06T05:53:18;100600.47;;;5.12;92.85
31483;BME280;18103;52.246;8.052;2024-03-06T05:55:47;100607.16;;;5.18;93.37
31483;BME280;18103;52.246;8.052;2024-03-06T05:58:13;100602.41;;;5.09;93.49
31483;BME280;18103;52.246;8.052;2024-03-06T06:00:40;100608.09;;;5.17;93.26
31483;BME280;18103;52.246;8.052;2024-03-06T06:03:08;100610.41;;;5.23;93.07
31483;BME280;18103;52.246;8.052;2024-03-06T06:05:34;100615.00;;;5.18;93.25
31483;BME280;18103;52.246;8.052;2024-03-06T06:08:01;100614.47;;;5.29;92.86
31483;BME280;18103;52.246;8.052;2024-03-06T06:10:29;100617.63;;;5.18;92.92
31483;BME280;18103;52.246;8.052;2024-03-06T06:12:54;100621.94;;;5.19;92.86
31483;BME280;18103;52.246;8.052;2024-03-06T06:15:20;100626.09;;;5.23;93.00
31483;BME280;18103;52.246;8.052;2024-03-06T06:17:46;100633.59;;;5.13;93.22
31483;BME280;18103;52.246;8.052;2024-03-06T06:20:12;100636.41;;;5.09;93.43
31483;BME280;18103;52.246;8.052;2024-03-06T06:22:41;100645.63;;;5.16;93.25
31483;BME280;18103;52.246;8.052;2024-03-06T06:25:11;100650.81;;;5.18;93.06
31483;BME280;18103;52.246;8.052;2024-03-06T06:27:38;100647.34;;;5.17;92.85
31483;BME280;18103;52.246;8.052;2024-03-06T06:30:04;100655.25;;;5.16;92.69
31483;BME280;18103;52.246;8.052;2024-03-06T06:32:30;100660.41;;;5.17;92.44
31483;BME280;18103;52.246;8.052;2024-03-06T06:34:58;100662.41;;;5.12;92.56
31483;BME280;18103;52.246;8.052;2024-03-06T06:37:28;100662.03;;;5.20;92.80
31483;BME280;18103;52.246;8.052;2024-03-06T06:39:54;100667.72;;;5.10;92.78
31483;BME280;18103;52.246;8.052;2024-03-06T06:42:19;100667.88;;;5.07;92.87
31483;BME280;18103;52.246;8.052;2024-03-06T06:44:48;100668.66;;;5.09;92.81
31483;BME280;18103;52.246;8.052;2024-03-06T06:47:13;100673.41;;;5.19;92.40
31483;BME280;18103;52.246;8.052;2024-03-06T06:49:40;100683.22;;;5.15;92.34
31483;BME280;18103;52.246;8.052;2024-03-06T06:52:07;100683.50;;;5.09;93.04
31483;BME280;18103;52.246;8.052;2024-03-06T06:54:35;100683.97;;;5.17;92.80
31483;BME280;18103;52.246;8.052;2024-03-06T06:57:00;100691.19;;;5.12;92.93
31483;BME280;18103;52.246;8.052;2024-03-06T06:59:28;100696.28;;;5.15;93.20
31483;BME280;18103;52.246;8.052;2024-03-06T07:01:53;100695.22;;;5.19;92.63
31483;BME280;18103;52.246;8.052;2024-03-06T07:04:23;100699.91;;;5.12;93.10
31483;BME280;18103;52.246;8.052;2024-03-06T07:06:49;100709.59;;;5.28;92.65
31483;BME280;18103;52.246;8.052;2024-03-06T07:09:19;100703.91;;;5.20;93.15
31483;BME280;18103;52.246;8.052;2024-03-06T07:11:46;100704.00;;;5.18;93.34
31483;BME280;18103;52.246;8.052;2024-03-06T07:14:12;100714.13;;;5.24;92.89
31483;BME280;18103;52.246;8.052;2024-03-06T07:16:45;100707.22;;;5.23;93.33
31483;BME280;18103;52.246;8.052;2024-03-06T07:19:11;100711.75;;;5.20;93.33
31483;BME280;18103;52.246;8.052;2024-03-06T07:21:37;100715.06;;;5.23;93.69
31483;BME280;18103;52.246;8.052;2024-03-06T07:24:05;100713.06;;;5.28;93.40
31483;BME280;18103;52.246;8.052;2024-03-06T07:26:37;100708.59;;;5.30;92.79
31483;BME280;18103;52.246;8.052;2024-03-06T07:29:03;100710.97;;;5.35;93.17
31483;BME280;18103;52.246;8.052;2024-03-06T07:31:29;100722.44;;;5.32;93.38
31483;BME280;18103;52.246;8.052;2024-03-06T07:33:55;100721.53;;;5.34;93.36
31483;BME280;18103;52.246;8.052;2024-03-06T07:36:20;100722.28;;;5.36;93.10
31483;BME280;18103;52.246;8.052;2024-03-06T07:38:47;100730.31;;;5.32;93.35
31483;BME280;18103;52.246;8.052;2024-03-06T07:41:12;100735.69;;;5.29;93.17
31483;BME280;18103;52.246;8.052;2024-03-06T07:43:39;100739.16;;;5.30;93.22
31483;BME280;18103;52.246;8.052;2024-03-06T07:46:04;100740.69;;;5.34;93.57
31483;BME280;18103;52.246;8.052;2024-03-06T07:48:43;100746.91;;;5.31;93.00
31483;BME280;18103;52.246;8.052;2024-03-06T07:51:12;100756.94;;;5.23;93.63
31483;BME280;18103;52.246;8.052;2024-03-06T07:53:39;100759.41;;;5.26;93.36
31483;BME280;18103;52.246;8.052;2024-03-06T07:56:06;100758.94;;;5.36;93.06
31483;BME280;18103;52.246;8.052;2024-03-06T07:58:31;100760.16;;;5.11;94.80
31483;BME280;18103;52.246;8.052;2024-03-06T08:00:57;100757.47;;;5.12;94.46
31483;BME280;18103;52.246;8.052;2024-03-06T08:03:23;100763.84;;;5.24;93.21
31483;BME280;18103;52.246;8.052;2024-03-06T08:05:52;100771.09;;;5.37;93.20
31483;BME280;18103;52.246;8.052;2024-03-06T08:08:18;100771.88;;;5.21;94.63
31483;BME280;18103;52.246;8.052;2024-03-06T08:10:47;100771.63;;;5.26;94.43
31483;BME280;18103;52.246;8.052;2024-03-06T08:13:13;100775.88;;;5.11;95.91
31483;BME280;18103;52.246;8.052;2024-03-06T08:15:42;100774.19;;;5.27;94.57
31483;BME280;18103;52.246;8.052;2024-03-06T08:18:09;100772.78;;;5.20;95.12
31483;BME280;18103;52.246;8.052;2024-03-06T08:20:37;100771.88;;;5.21;95.24
31483;BME280;18103;52.246;8.052;2024-03-06T08:23:02;100781.97;;;5.29;94.46
31483;BME280;18103;52.246;8.052;2024-03-06T08:25:30;100779.47;;;5.26;95.36
31483;BME280;18103;52.246;8.052;2024-03-06T08:27:58;100789.91;;;5.27;94.96
31483;BME280;18103;52.246;8.052;2024-03-06T08:30:24;100790.50;;;5.32;94.75
31483;BME280;18103;52.246;8.052;2024-03-06T08:32:54;100799.22;;;5.33;95.27
31483;BME280;18103;52.246;8.052;2024-03-06T08:35:21;100799.97;;;5.35;94.55
31483;BME280;18103;52.246;8.052;2024-03-06T08:37:48;100802.28;;;5.41;94.50
31483;BME280;18103;52.246;8.052;2024-03-06T08:40:14;100809.63;;;5.35;94.93
31483;BME280;18103;52.246;8.052;2024-03-06T08:42:49;100811.28;;;5.36;94.75
31483;BME280;18103;52.246;8.052;2024-03-06T08:45:18;100816.06;;;5.45;94.05
31483;BME280;18103;52.246;8.052;2024-03-06T08:47:46;100815.09;;;5.47;94.42
31483;BME280;18103;52.246;8.052;2024-03-06T08:50:14;100819.63;;;5.44;94.63
31483;BME280;18103;52.246;8.052;2024-03-06T08:52:43;100823.69;;;5.49;93.88
31483;BME280;18103;52.246;8.052;2024-03-06T08:55:09;100825.56;;;5.47;94.55
31483;BME280;18103;52.246;8.052;2024-03-06T08:57:38;100826.31;;;5.49;95.18
31483;BME280;18103;52.246;8.052;2024-03-06T09:00:04;100828.00;;;5.51;95.60
31483;BME280;18103;52.246;8.052;2024-03-06T09:02:34;100826.22;;;5.51;95.45
31483;BME280;18103;52.246;8.052;2024-03-06T09:05:01;100832.25;;;5.53;95.31
31483;BME280;18103;52.246;8.052;2024-03-06T09:07:29;100838.25;;;5.55;94.30
31483;BME280;18103;52.246;8.052;2024-03-06T09:09:55;100840.88;;;5.55;93.72
31483;BME280;18103;52.246;8.052;2024-03-06T09:12:20;100844.13;;;5.60;93.68
31483;BME280;18103;52.246;8.052;2024-03-06T09:14:48;100838.72;;;5.63;93.57
31483;BME280;18103;52.246;8.052;2024-03-06T09:17:14;100845.50;;;5.68;93.81
31483;BME280;18103;52.246;8.052;2024-03-06T09:19:40;100842.28;;;5.62;93.56
31483;BME280;18103;52.246;8.052;2024-03-06T09:22:06;100840.34;;;5.66;93.90
31483;BME280;18103;52.246;8.052;2024-03-06T09:24:35;100845.50;;;5.68;93.47
31483;BME280;18103;52.246;8.052;2024-03-06T09:27:02;100850.19;;;5.61;93.88
31483;BME280;18103;52.246;8.052;2024-03-06T09:29:27;100856.91;;;5.66;93.69
31483;BME280;18103;52.246;8.052;2024-03-06T09:31:55;100858.78;;;5.82;93.51
31483;BME280;18103;52.246;8.052;2024-03-06T09:34:20;100859.22;;;5.73;94.13
31483;BME280;18103;52.246;8.052;2024-03-06T09:36:49;100865.84;;;5.80;93.66
31483;BME280;18103;52.246;8.052;2024-03-06T09:39:19;100864.94;;;5.81;93.98
31483;BME280;18103;52.246;8.052;2024-03-06T09:41:53;100864.38;;;5.74;93.47
31483;BME280;18103;52.246;8.052;2024-03-06T09:44:20;100862.16;;;5.84;93.99
31483;BME280;18103;52.246;8.052;2024-03-06T09:46:49;100866.75;;;5.79;95.10
31483;BME280;18103;52.246;8.052;2024-03-06T09:49:21;100873.63;;;5.81;93.93
31483;BME280;18103;52.246;8.052;2024-03-06T09:51:51;100876.16;;;5.83;94.51
31483;BME280;18103;52.246;8.052;2024-03-06T09:54:25;100877.03;;;5.83;95.19
31483;BME280;18103;52.246;8.052;2024-03-06T09:56:54;100881.41;;;5.83;94.48
31483;BME280;18103;52.246;8.052;2024-03-06T09:59:23;100883.09;;;5.84;94.33
31483;BME280;18103;52.246;8.052;2024-03-06T10:06:48;100896.50;;;5.95;94.75
31483;BME280;18103;52.246;8.052;2024-03-06T10:09:18;100891.19;;;5.97;94.34
31483;BME280;18103;52.246;8.052;2024-03-06T10:11:43;100901.34;;;6.05;94.02
31483;BME280;18103;52.246;8.052;2024-03-06T10:14:09;100896.84;;;6.07;93.68
31483;BME280;18103;52.246;8.052;2024-03-06T10:16:38;100904.25;;;6.16;93.49
31483;BME280;18103;52.246;8.052;2024-03-06T10:19:17;100899.19;;;6.13;93.91
31483;BME280;18103;52.246;8.052;2024-03-06T10:21:48;100894.59;;;6.16;95.49
31483;BME280;18103;52.246;8.052;2024-03-06T10:24:20;100894.22;;;6.24;95.49
31483;BME280;18103;52.246;8.052;2024-03-06T10:26:50;100898.75;;;6.21;94.70
31483;BME280;18103;52.246;8.052;2024-03-06T10:29:17;100898.88;;;6.35;95.90
31483;BME280;18103;52.246;8.052;2024-03-06T10:31:54;100896.88;;;6.40;95.42
31483;BME280;18103;52.246;8.052;2024-03-06T10:34:20;100900.88;;;6.47;95.94
31483;BME280;18103;52.246;8.052;2024-03-06T10:36:54;100898.03;;;6.52;95.44
31483;BME280;18103;52.246;8.052;2024-03-06T10:39:20;100902.34;;;6.53;96.03
31483;BME280;18103;52.246;8.052;2024-03-06T10:41:57;100902.19;;;6.56;95.78
31483;BME280;18103;52.246;8.052;2024-03-06T10:44:29;100905.09;;;6.67;96.19
31483;BME280;18103;52.246;8.052;2024-03-06T10:47:00;100905.59;;;6.74;95.33
31483;BME280;18103;52.246;8.052;2024-03-06T10:49:26;100909.75;;;6.78;94.14
31483;BME280;18103;52.246;8.052;2024-03-06T10:51:54;100917.53;;;6.80;94.00
31483;BME280;18103;52.246;8.052;2024-03-06T10:54:22;100914.91;;;6.80;93.77
31483;BME280;18103;52.246;8.052;2024-03-06T10:56:55;100921.09;;;6.79;93.41
31483;BME280;18103;52.246;8.052;2024-03-06T10:59:20;100916.78;;;6.94;92.78
31483;BME280;18103;52.246;8.052;2024-03-06T11:01:51;100917.66;;;6.94;93.29
31483;BME280;18103;52.246;8.052;2024-03-06T11:04:17;100925.19;;;7.00;93.10
31483;BME280;18103;52.246;8.052;2024-03-06T11:06:42;100919.72;;;7.05;92.54
31483;BME280;18103;52.246;8.052;2024-03-06T11:09:10;100924.88;;;7.07;92.89
31483;BME280;18103;52.246;8.052;2024-03-06T11:11:51;100927.16;;;7.13;92.45
31483;BME280;18103;52.246;8.052;2024-03-06T11:14:17;100926.09;;;6.99;93.44
31483;BME280;18103;52.246;8.052;2024-03-06T11:17:06;100926.53;;;7.08;92.48
31483;BME280;18103;52.246;8.052;2024-03-06T11:28:28;100933.19;;;7.15;91.56
31483;BME280;18103;52.246;8.052;2024-03-06T11:31:05;100940.53;;;7.24;91.58
31483;BME280;18103;52.246;8.052;2024-03-06T11:33:37;100941.47;;;7.23;91.41
31483;BME280;18103;52.246;8.052;2024-03-06T11:36:15;100937.38;;;7.17;91.72
31483;BME280;18103;52.246;8.052;2024-03-06T11:38:53;100938.16;;;7.19;91.30
31483;BME280;18103;52.246;8.052;2024-03-06T11:41:25;100949.19;;;7.26;91.15
31483;BME280;18103;52.246;8.052;2024-03-06T11:43:51;100950.19;;;7.24;92.12
31483;BME280;18103;52.246;8.052;2024-03-06T11:46:21;100952.25;;;7.34;92.00
31483;BME280;18103;52.246;8.052;2024-03-06T11:48:54;100955.19;;;7.28;91.32
31483;BME280;18103;52.246;8.052;2024-03-06T11:51:21;100947.56;;;7.40;91.64
31483;BME280;18103;52.246;8.052;2024-03-06T11:53:50;100951.06;;;7.40;90.54
31483;BME280;18103;52.246;8.052;2024-03-06T11:56:18;100957.31;;;7.38;90.93
31483;BME280;18103;52.246;8.052;2024-03-06T11:58:45;100958.94;;;7.40;90.47
31483;BME280;18103;52.246;8.052;2024-03-06T12:01:11;100957.31;;;7.38;90.60
31483;BME280;18103;52.246;8.052;2024-03-06T12:03:38;100962.88;;;7.31;90.39
31483;BME280;18103;52.246;8.052;2024-03-06T12:06:04;100960.69;;;7.24;90.95
31483;BME280;18103;52.246;8.052;2024-03-06T12:08:30;100956.09;;;7.27;90.50
31483;BME280;18103;52.246;8.052;2024-03-06T12:10:55;100965.59;;;7.14;90.89
31483;BME280;18103;52.246;8.052;2024-03-06T12:13:26;100964.06;;;7.10;91.05
31483;BME280;18103;52.246;8.052;2024-03-06T12:15:51;100976.78;;;7.17;90.52
31483;BME280;18103;52.246;8.052;2024-03-06T12:18:18;100975.59;;;7.23;90.13
31483;BME280;18103;52.246;8.052;2024-03-06T12:20:44;100970.63;;;7.34;89.71
31483;BME280;18103;52.246;8.052;2024-03-06T12:23:22;100969.59;;;7.37;89.61
31483;BME280;18103;52.246;8.052;2024-03-06T12:26:07;100969.25;;;7.27;90.12
31483;BME280;18103;52.246;8.052;2024-03-06T12:28:38;100969.16;;;7.29;90.39
31483;BME280;18103;52.246;8.052;2024-03-06T12:31:05;100969.44;;;7.40;89.58
31483;BME280;18103;52.246;8.052;2024-03-06T12:33:32;100975.28;;;7.29;90.20
31483;BME280;18103;52.246;8.052;2024-03-06T12:36:06;100964.78;;;7.29;89.71
31483;BME280;18103;52.246;8.052;2024-03-06T12:38:37;100970.94;;;7.44;90.09
31483;BME280;18103;52.246;8.052;2024-03-06T12:41:03;100969.09;;;7.30;90.77
31483;BME280;18103;52.246;8.052;2024-03-06T12:43:29;100972.81;;;7.26;90.04
31483;BME280;18103;52.246;8.052;2024-03-06T12:45:55;100976.19;;;7.44;89.44
31483;BME280;18103;52.246;8.052;2024-03-06T12:48:27;100970.94;;;7.44;90.22
31483;BME280;18103;52.246;8.052;2024-03-06T12:50:55;100970.88;;;7.46;90.14
31483;BME280;18103;52.246;8.052;2024-03-06T12:53:30;100976.81;;;7.65;88.99
31483;BME280;18103;52.246;8.052;2024-03-06T12:55:55;100975.78;;;7.52;89.97
31483;BME280;18103;52.246;8.052;2024-03-06T12:58:25;100978.91;;;7.43;90.56
31483;BME280;18103;52.246;8.052;2024-03-06T13:00:55;100972.78;;;7.58;89.59
31483;BME280;18103;52.246;8.052;2024-03-06T13:03:21;100976.19;;;7.60;88.56
31483;BME280;18103;52.246;8.052;2024-03-06T13:05:46;100973.75;;;7.41;90.09
31483;BME280;18103;52.246;8.052;2024-03-06T13:08:13;100977.41;;;7.54;89.71
31483;BME280;18103;52.246;8.052;2024-03-06T13:10:45;100976.81;;;7.65;89.40
31483;BME280;18103;52.246;8.052;2024-03-06T13:13:10;100977.41;;;7.54;89.50
31483;BME280;18103;52.246;8.052;2024-03-06T13:15:37;100981.69;;;7.71;88.77
31483;BME280;18103;52.246;8.052;2024-03-06T13:18:03;100982.81;;;7.67;88.92